2V6

Yuma Municipalcipal Airport

Yuma, Colorado, USA
METAR K2V6 191634Z AUTO 00000KT 3SM BR OVC003 M05/M06 A3023 RMK AO2
Observed Flight Rules
Jan-19 @ 16:34 UTC (25 minutes ago) Instrument Flight Rules
Visibility Clouds Conditions
3 miles
  • Overcast at 300' AGL
  • Mist
Temperatures Readings
Current -5°C / 23°F
Dewpoint -6°C / 21°F
Humidity 93%
Altimeter 30.23" Hg
Pressure 1023.72 hPa
Elevation 1261
METAR K2V6 191634Z AUTO 00000KT 3SM BR OVC003 M05/M06 A3023 RMK AO2
Observed Flight Rules
Jan-19 @ 16:34 UTC
(25 minutes ago)
LIFR
Clouds
  • Overcast at 300' AGL
Conditions
  • Mist
Temperature Dewpoint
-5°C / 23°F -6°C / 21°F
Humidity Altimeter Pressure
93% 30.23" Hg 1023.72 hPa